Time;durP1;ratioP1;P1;durP2;ratioP2;P2;SDS_P1;SDS_P2;PMS_P1;PMS_P2;Temp;Humidity;BMP_temperature;BMP_pressure;BME280_temperature;BME280_humidity;BME280_pressure;Samples;Min_cycle;Max_cycle;Signal;HPM_P1;HPM_P2
2022/08/21 00:01:57;;;;;;;0.00;0.00;;;13.30;60.80;;;;;;5021344;28;20029;-74
2022/08/21 00:04:24;;;;;;;0.00;0.00;;;13.30;61.10;;;;;;5031731;28;20482;-74
2022/08/21 00:06:51;;;;;;;0.00;0.00;;;13.40;61.00;;;;;;5034965;28;20040;-74
2022/08/21 00:09:18;;;;;;;0.00;0.00;;;13.40;61.00;;;;;;5035914;28;20017;-74
2022/08/21 00:11:45;;;;;;;0.00;0.00;;;13.30;61.20;;;;;;5031631;28;20021;-74
2022/08/21 00:14:12;;;;;;;0.60;0.60;;;13.30;61.90;;;;;;5036714;28;20025;-75
2022/08/21 00:16:38;;;;;;;0.00;0.00;;;13.30;62.00;;;;;;5036085;28;20371;-75
2022/08/21 00:19:06;;;;;;;0.00;0.00;;;13.40;61.80;;;;;;5037617;28;20025;-73
2022/08/21 00:21:34;;;;;;;0.00;0.00;;;13.30;61.70;;;;;;5036540;28;20036;-74
2022/08/21 00:24:00;;;;;;;0.00;0.00;;;13.30;62.60;;;;;;5017745;28;20045;-74
2022/08/21 00:26:26;;;;;;;0.00;0.00;;;13.30;62.00;;;;;;5026311;28;20018;-73
2022/08/21 00:28:52;;;;;;;0.00;0.00;;;13.30;62.00;;;;;;5018427;28;20069;-73
2022/08/21 00:31:19;;;;;;;0.00;0.00;;;13.40;61.90;;;;;;5004554;28;20144;-73
2022/08/21 00:33:45;;;;;;;0.00;0.00;;;13.50;61.80;;;;;;5025350;28;20367;-73
2022/08/21 00:36:12;;;;;;;0.00;0.00;;;13.50;61.80;;;;;;5025857;28;20026;-73
2022/08/21 00:38:38;;;;;;;0.00;0.00;;;13.50;61.70;;;;;;5035872;28;20080;-74
2022/08/21 00:41:09;;;;;;;0.22;0.22;;;13.50;61.50;;;;;;5031474;28;20379;-73
2022/08/21 00:43:36;;;;;;;0.00;0.00;;;13.60;61.30;;;;;;5042027;28;20025;-73
2022/08/21 00:46:04;;;;;;;0.00;0.00;;;13.60;61.10;;;;;;5038048;28;20039;-73
2022/08/21 00:48:31;;;;;;;0.00;0.00;;;13.70;61.10;;;;;;5044541;28;21315;-74
2022/08/21 00:51:15;;;;;;;0.70;0.70;;;13.70;61.10;;;;;;5042887;28;20037;-72
2022/08/21 00:53:43;;;;;;;0.00;0.00;;;13.80;61.30;;;;;;5042184;28;20460;-74
2022/08/21 00:56:11;;;;;;;0.00;0.00;;;13.70;61.20;;;;;;5045143;28;20152;-74
2022/08/21 00:58:41;;;;;;;0.00;0.00;;;13.80;61.30;;;;;;5046086;28;20473;-74
2022/08/21 01:01:08;;;;;;;0.00;0.00;;;13.80;61.50;;;;;;5043933;28;20351;-74
2022/08/21 01:03:36;;;;;;;0.52;0.52;;;13.90;61.20;;;;;;5037638;28;20033;-76
2022/08/21 01:06:05;;;;;;;0.45;0.17;;;13.90;61.00;;;;;;5037646;28;20082;-74
2022/08/21 01:08:33;;;;;;;0.00;0.00;;;14.00;61.10;;;;;;5033804;28;20104;-72
2022/08/21 01:11:00;;;;;;;0.00;0.00;;;14.00;60.60;;;;;;5012453;28;20033;-75
2022/08/21 01:13:31;;;;;;;0.00;0.00;;;14.10;60.10;;;;;;5036406;28;20065;-75
2022/08/21 01:15:59;;;;;;;0.00;0.00;;;13.90;61.50;;;;;;5043089;28;20049;-75
2022/08/21 01:18:29;;;;;;;0.00;0.00;;;14.10;60.70;;;;;;5023625;28;20037;-74
2022/08/21 01:21:11;;;;;;;0.00;0.00;;;14.20;60.30;;;;;;5037065;28;20029;-74
2022/08/21 01:23:41;;;;;;;0.00;0.00;;;14.40;60.20;;;;;;5040393;28;20033;-75
2022/08/21 01:26:08;;;;;;;0.00;0.00;;;14.40;60.00;;;;;;5033775;28;20132;-72
2022/08/21 01:28:42;;;;;;;0.00;0.00;;;14.50;60.00;;;;;;5035124;28;20060;-72
2022/08/21 01:31:13;;;;;;;0.08;0.08;;;14.50;59.70;;;;;;5047894;28;20049;-72
2022/08/21 01:33:40;;;;;;;0.00;0.00;;;14.70;59.20;;;;;;5034560;28;20029;-74
2022/08/21 01:36:06;;;;;;;0.00;0.00;;;14.80;58.80;;;;;;5037837;28;21036;-73
2022/08/21 01:38:32;;;;;;;0.10;0.10;;;14.90;58.70;;;;;;5038445;28;20025;-74
2022/08/21 01:41:01;;;;;;;0.00;0.00;;;14.80;58.50;;;;;;5040089;28;20031;-73
2022/08/21 01:43:29;;;;;;;0.00;0.00;;;14.80;58.80;;;;;;5043968;28;20051;-73
2022/08/21 01:45:55;;;;;;;0.00;0.00;;;14.70;59.10;;;;;;5038521;28;20025;-73
2022/08/21 01:48:21;;;;;;;3.50;1.13;;;14.90;58.80;;;;;;5042786;28;20490;-74
2022/08/21 01:50:47;;;;;;;0.00;0.00;;;15.10;58.60;;;;;;5044045;28;20048;-73
2022/08/21 01:53:15;;;;;;;0.00;0.00;;;15.10;58.20;;;;;;5044427;28;20040;-73
2022/08/21 01:55:42;;;;;;;0.00;0.00;;;15.20;57.60;;;;;;5042565;28;20116;-73
2022/08/21 01:58:08;;;;;;;0.00;0.00;;;15.20;57.70;;;;;;5042700;28;20486;-73
2022/08/21 02:00:35;;;;;;;0.00;0.00;;;15.20;57.60;;;;;;5038137;28;20030;-73
2022/08/21 02:03:02;;;;;;;0.00;0.00;;;15.40;57.30;;;;;;5039564;28;20029;-73
2022/08/21 02:05:28;;;;;;;0.00;0.00;;;15.50;57.10;;;;;;5020826;28;20339;-73
2022/08/21 02:07:56;;;;;;;0.00;0.00;;;15.50;56.90;;;;;;5036067;28;20096;-73
2022/08/21 02:10:27;;;;;;;0.00;0.00;;;15.80;56.70;;;;;;5025129;28;20021;-73
2022/08/21 02:12:55;;;;;;;0.03;0.03;;;15.90;56.20;;;;;;5034331;28;20112;-74
2022/08/21 02:15:21;;;;;;;0.00;0.00;;;16.00;55.90;;;;;;5033675;28;20025;-73
2022/08/21 02:17:50;;;;;;;0.00;0.00;;;16.20;55.30;;;;;;5037259;28;20053;-75
2022/08/21 02:20:21;;;;;;;0.00;0.00;;;16.50;54.40;;;;;;5039847;28;20371;-73
2022/08/21 02:22:47;;;;;;;0.00;0.00;;;16.60;54.00;;;;;;5039315;28;20145;-74
2022/08/21 02:25:14;;;;;;;0.08;0.08;;;16.60;54.20;;;;;;5039116;28;20021;-73
2022/08/21 02:27:42;;;;;;;1.08;1.08;;;16.50;54.30;;;;;;5027871;28;20378;-73
2022/08/21 02:30:13;;;;;;;0.00;0.00;;;16.60;54.00;;;;;;5034581;28;20446;-74
2022/08/21 02:32:39;;;;;;;0.00;0.00;;;16.70;53.90;;;;;;5031093;28;20116;-73
2022/08/21 02:35:07;;;;;;;0.00;0.00;;;16.80;54.00;;;;;;5037732;28;20374;-74
2022/08/21 02:37:47;;;;;;;0.00;0.00;;;16.90;53.30;;;;;;5032510;28;20022;-74
2022/08/21 02:40:15;;;;;;;0.00;0.00;;;17.10;53.50;;;;;;5017761;28;20184;-73
2022/08/21 02:42:43;;;;;;;0.00;0.00;;;17.10;53.10;;;;;;5027760;28;20028;-73
2022/08/21 02:45:11;;;;;;;0.45;0.45;;;16.40;54.30;;;;;;5038718;28;20045;-74
2022/08/21 02:47:37;;;;;;;0.00;0.00;;;16.90;54.30;;;;;;5042562;28;20112;-74
2022/08/21 02:50:06;;;;;;;0.00;0.00;;;17.10;53.50;;;;;;5042221;28;20021;-73
2022/08/21 02:52:34;;;;;;;22.02;20.17;;;16.80;53.20;;;;;;5040732;28;20418;-73
2022/08/21 02:55:00;;;;;;;0.00;0.00;;;17.00;53.50;;;;;;5039430;28;20038;-73
2022/08/21 02:57:26;;;;;;;0.00;0.00;;;17.20;52.90;;;;;;5042076;28;20026;-73
2022/08/21 02:59:53;;;;;;;1.45;0.73;;;17.20;52.80;;;;;;5040462;28;20055;-73
2022/08/21 03:02:21;;;;;;;0.00;0.00;;;17.60;52.30;;;;;;5035336;28;20067;-73
2022/08/21 03:04:49;;;;;;;0.68;0.68;;;17.00;52.80;;;;;;5021776;28;20053;-73
2022/08/21 03:07:15;;;;;;;0.00;0.00;;;16.30;55.00;;;;;;5021167;28;20040;-73
2022/08/21 03:09:41;;;;;;;0.00;0.00;;;16.40;54.60;;;;;;5028262;28;20112;-74
2022/08/21 03:12:07;;;;;;;0.00;0.00;;;16.80;53.80;;;;;;5018294;28;20026;-74
2022/08/21 03:14:33;;;;;;;0.00;0.00;;;17.30;52.80;;;;;;5031190;28;20029;-73
2022/08/21 03:16:59;;;;;;;0.00;0.00;;;17.60;52.60;;;;;;5039869;28;20055;-74
2022/08/21 03:19:25;;;;;;;0.00;0.00;;;17.80;51.70;;;;;;5029727;28;20036;-74
2022/08/21 03:21:51;;;;;;;0.00;0.00;;;18.10;50.70;;;;;;5030481;28;20029;-75
2022/08/21 03:24:18;;;;;;;19.60;18.00;;;18.30;49.90;;;;;;5024177;28;20409;-74
2022/08/21 03:26:44;;;;;;;0.00;0.00;;;18.30;49.30;;;;;;5038902;28;20033;-74
2022/08/21 03:29:10;;;;;;;0.00;0.00;;;18.30;48.80;;;;;;5039346;28;20034;-74
2022/08/21 03:31:39;;;;;;;0.00;0.00;;;18.30;48.70;;;;;;5035132;28;20478;-75
2022/08/21 03:34:05;;;;;;;0.00;0.00;;;18.40;49.00;;;;;;5033618;28;20101;-75
2022/08/21 03:36:31;;;;;;;0.00;0.00;;;18.60;49.30;;;;;;5030920;28;20034;-74
2022/08/21 03:38:58;;;;;;;0.00;0.00;;;18.30;49.70;;;;;;5034266;28;20021;-74
2022/08/21 03:41:26;;;;;;;3.55;2.00;;;18.20;50.40;;;;;;5035009;28;20067;-73
2022/08/21 03:43:53;;;;;;;0.10;0.10;;;17.90;50.50;;;;;;5034788;28;20080;-73
2022/08/21 03:46:19;;;;;;;0.00;0.00;;;17.80;50.90;;;;;;5020896;28;20353;-74
2022/08/21 03:48:45;;;;;;;0.00;0.00;;;18.10;49.20;;;;;;5037455;28;20037;-74
2022/08/21 03:51:12;;;;;;;0.00;0.00;;;18.00;48.10;;;;;;5031259;28;20134;-74
2022/08/21 03:53:38;;;;;;;0.00;0.00;;;17.20;49.20;;;;;;5031430;28;20063;-74
2022/08/21 03:56:05;;;;;;;0.00;0.00;;;17.20;50.30;;;;;;5030774;28;20061;-75
2022/08/21 03:58:31;;;;;;;0.00;0.00;;;17.70;48.90;;;;;;5042708;28;20074;-74
2022/08/21 04:00:59;;;;;;;0.00;0.00;;;17.30;48.00;;;;;;5034853;28;20349;-74
2022/08/21 04:03:27;;;;;;;0.10;0.10;;;17.80;48.80;;;;;;5027437;28;20024;-74
2022/08/21 04:05:53;;;;;;;0.00;0.00;;;17.90;49.70;;;;;;5032969;28;20473;-74
2022/08/21 04:08:19;;;;;;;0.00;0.00;;;17.80;49.40;;;;;;5029865;28;20022;-74
2022/08/21 04:10:51;;;;;;;0.00;0.00;;;18.00;49.00;;;;;;5021132;28;20029;-74
2022/08/21 04:13:18;;;;;;;0.13;0.13;;;17.80;48.90;;;;;;5031121;28;20025;-74
2022/08/21 04:15:44;;;;;;;0.00;0.00;;;18.20;48.70;;;;;;5025078;28;20025;-73
2022/08/21 04:18:10;;;;;;;0.00;0.00;;;18.60;48.80;;;;;;5024850;28;20088;-74
2022/08/21 04:20:37;;;;;;;0.00;0.00;;;19.00;48.60;;;;;;5043791;28;20029;-74
2022/08/21 04:23:03;;;;;;;0.00;0.00;;;19.30;48.00;;;;;;5037167;28;20499;-74
2022/08/21 04:25:30;;;;;;;0.00;0.00;;;19.30;46.60;;;;;;5030115;28;20033;-74
2022/08/21 04:27:58;;;;;;;0.00;0.00;;;19.60;46.10;;;;;;5028537;28;20021;-74
2022/08/21 04:30:25;;;;;;;1.13;1.02;;;19.80;44.50;;;;;;5016673;28;20037;-74
2022/08/21 04:32:51;;;;;;;0.15;0.15;;;19.50;45.50;;;;;;5024872;28;20025;-74
2022/08/21 04:35:21;;;;;;;0.00;0.00;;;19.70;45.40;;;;;;5042804;28;20484;-74
2022/08/21 04:37:48;;;;;;;0.00;0.00;;;19.30;45.30;;;;;;5025618;28;20052;-74
2022/08/21 04:40:16;;;;;;;0.40;0.32;;;19.60;45.40;;;;;;5036296;28;20532;-74
2022/08/21 04:42:49;;;;;;;0.00;0.00;;;20.00;45.20;;;;;;5033670;28;20032;-74
2022/08/21 04:45:28;;;;;;;0.05;0.05;;;20.00;44.90;;;;;;5030777;28;20064;-74
2022/08/21 04:47:57;;;;;;;0.00;0.00;;;20.20;44.80;;;;;;5029077;28;20401;-74
2022/08/21 04:50:29;;;;;;;0.00;0.00;;;20.30;45.10;;;;;;5040290;28;20025;-74
2022/08/21 04:52:55;;;;;;;3.50;2.08;;;19.50;45.80;;;;;;5034382;28;20038;-73
2022/08/21 04:55:22;;;;;;;6.80;5.65;;;18.60;47.50;;;;;;5039187;28;20033;-74
2022/08/21 04:57:50;;;;;;;0.00;0.00;;;18.40;48.70;;;;;;5042746;28;20088;-73
2022/08/21 05:00:20;;;;;;;0.30;0.20;;;18.40;49.70;;;;;;5040294;28;20031;-74
2022/08/21 05:02:47;;;;;;;0.45;0.45;;;18.70;48.30;;;;;;5040270;28;20033;-73
2022/08/21 05:05:14;;;;;;;0.00;0.00;;;18.90;47.80;;;;;;5043304;28;20051;-74
2022/08/21 05:07:43;;;;;;;0.00;0.00;;;18.90;47.50;;;;;;5045804;28;20013;-73
2022/08/21 05:10:11;;;;;;;0.00;0.00;;;19.40;47.30;;;;;;5040779;28;20025;-73
2022/08/21 05:12:37;;;;;;;0.57;0.30;;;19.00;48.40;;;;;;5040136;28;20486;-74
2022/08/21 05:15:04;;;;;;;0.00;0.00;;;18.50;48.60;;;;;;5039913;28;20444;-73
2022/08/21 05:17:30;;;;;;;0.00;0.00;;;18.70;48.80;;;;;;5035854;28;20045;-73
2022/08/21 05:19:56;;;;;;;0.00;0.00;;;18.70;48.60;;;;;;5033258;28;20033;-73
2022/08/21 05:22:24;;;;;;;0.00;0.00;;;18.70;47.60;;;;;;5043677;28;20025;-73
2022/08/21 05:24:51;;;;;;;0.00;0.00;;;18.60;47.50;;;;;;5030868;28;20029;-73
2022/08/21 05:27:17;;;;;;;0.00;0.00;;;18.60;48.00;;;;;;5043501;28;20025;-73
2022/08/21 05:29:43;;;;;;;0.15;0.05;;;18.60;49.30;;;;;;5048012;28;20425;-73
2022/08/21 05:32:11;;;;;;;0.10;0.03;;;18.80;48.30;;;;;;5032753;28;20029;-74
2022/08/21 05:34:37;;;;;;;0.00;0.00;;;18.90;48.30;;;;;;5040685;28;20053;-74
2022/08/21 05:37:06;;;;;;;0.10;0.10;;;19.10;47.50;;;;;;5031190;28;20096;-74
2022/08/21 05:39:32;;;;;;;0.20;0.00;;;19.20;45.80;;;;;;5037541;28;20362;-72
2022/08/21 05:41:58;;;;;;;0.00;0.00;;;18.60;45.20;;;;;;5028428;28;20025;-75
2022/08/21 05:44:24;;;;;;;0.00;0.00;;;18.60;47.70;;;;;;5024754;28;20030;-74
2022/08/21 05:46:50;;;;;;;0.00;0.00;;;18.90;47.40;;;;;;5024189;28;20021;-74
2022/08/21 05:49:16;;;;;;;6.22;5.22;;;19.20;47.20;;;;;;5034909;28;20025;-72
2022/08/21 05:51:43;;;;;;;0.00;0.00;;;19.40;46.50;;;;;;5031781;28;20030;-73
2022/08/21 05:54:09;;;;;;;0.00;0.00;;;19.10;46.40;;;;;;5025713;28;20021;-75
2022/08/21 05:56:35;;;;;;;0.25;0.25;;;18.60;46.90;;;;;;5022741;28;20060;-74
2022/08/21 05:59:01;;;;;;;0.00;0.00;;;18.90;46.70;;;;;;5024793;28;20014;-74
2022/08/21 06:01:27;;;;;;;0.80;0.52;;;19.20;46.20;;;;;;5025721;28;20029;-73
2022/08/21 06:03:53;;;;;;;0.13;0.13;;;19.10;45.80;;;;;;5037828;28;20029;-74
2022/08/21 06:06:19;;;;;;;0.00;0.00;;;19.20;45.90;;;;;;5035440;28;20060;-73
2022/08/21 06:08:46;;;;;;;0.00;0.00;;;19.20;45.10;;;;;;5008389;28;20041;-75
2022/08/21 06:11:12;;;;;;;0.20;0.17;;;19.50;45.70;;;;;;5035524;28;20496;-74
2022/08/21 06:13:38;;;;;;;0.00;0.00;;;19.30;44.70;;;;;;5037228;28;20458;-75
2022/08/21 06:16:09;;;;;;;2.17;1.98;;;19.20;45.10;;;;;;5043490;28;20147;-75
2022/08/21 06:18:37;;;;;;;0.00;0.00;;;19.30;43.60;;;;;;5039788;28;20486;-73
2022/08/21 06:21:04;;;;;;;0.00;0.00;;;19.50;43.10;;;;;;5033834;28;20032;-74
2022/08/21 06:23:30;;;;;;;0.00;0.00;;;19.60;44.60;;;;;;5034921;28;20415;-73
2022/08/21 06:25:57;;;;;;;0.00;0.00;;;19.40;45.50;;;;;;5036064;28;20017;-74
2022/08/21 06:28:23;;;;;;;0.00;0.00;;;19.60;44.70;;;;;;5031675;28;20032;-74
2022/08/21 06:30:49;;;;;;;0.00;0.00;;;19.60;44.20;;;;;;5034496;28;20474;-73
2022/08/21 06:33:15;;;;;;;0.03;0.03;;;19.60;45.20;;;;;;5043102;28;20025;-73
2022/08/21 06:35:41;;;;;;;0.30;0.30;;;19.70;44.90;;;;;;5039930;28;20124;-75
2022/08/21 06:38:08;;;;;;;0.00;0.00;;;19.50;45.70;;;;;;5039281;28;20048;-73
2022/08/21 06:40:37;;;;;;;0.00;0.00;;;19.00;45.90;;;;;;5040644;28;20022;-74
2022/08/21 06:43:15;;;;;;;0.00;0.00;;;19.10;47.10;;;;;;5039691;28;20112;-74
2022/08/21 06:45:42;;;;;;;0.00;0.00;;;19.20;46.60;;;;;;5037133;28;20091;-74
2022/08/21 06:48:08;;;;;;;0.00;0.00;;;19.10;46.60;;;;;;5041299;28;20052;-74
2022/08/21 06:50:36;;;;;;;2.05;0.85;;;19.00;46.10;;;;;;5042463;28;20039;-74
2022/08/21 06:53:09;;;;;;;0.00;0.00;;;19.40;46.00;;;;;;5038444;28;20029;-74
2022/08/21 06:55:36;;;;;;;0.20;0.00;;;19.70;45.70;;;;;;5039428;28;20033;-74
2022/08/21 06:58:03;;;;;;;0.00;0.00;;;20.00;44.40;;;;;;5035746;28;20026;-74
2022/08/21 07:00:30;;;;;;;0.00;0.00;;;20.20;42.90;;;;;;5038868;28;20490;-74
2022/08/21 07:02:56;;;;;;;0.00;0.00;;;20.40;41.20;;;;;;5037300;28;20497;-73
2022/08/21 07:05:25;;;;;;;0.00;0.00;;;20.40;42.00;;;;;;5036382;28;20025;-74
2022/08/21 07:07:51;;;;;;;0.15;0.15;;;20.20;42.30;;;;;;5038209;28;20568;-73
2022/08/21 07:10:18;;;;;;;0.85;0.20;;;20.40;42.30;;;;;;5041502;28;20037;-74
2022/08/21 07:12:44;;;;;;;0.00;0.00;;;20.20;42.40;;;;;;5039998;28;20057;-73
2022/08/21 07:15:10;;;;;;;0.00;0.00;;;20.50;42.00;;;;;;5036498;28;20382;-73
2022/08/21 07:17:37;;;;;;;0.00;0.00;;;20.50;41.30;;;;;;5030617;28;20160;-75
2022/08/21 07:20:05;;;;;;;0.00;0.00;;;20.40;40.70;;;;;;5037212;28;20355;-74
2022/08/21 07:22:31;;;;;;;0.08;0.08;;;19.70;41.10;;;;;;5031986;28;20105;-74
2022/08/21 07:24:58;;;;;;;0.00;0.00;;;20.20;41.10;;;;;;5037747;28;20373;-74
2022/08/21 07:27:24;;;;;;;0.00;0.00;;;20.50;41.90;;;;;;5036598;28;20084;-75
2022/08/21 07:29:50;;;;;;;0.00;0.00;;;21.20;40.80;;;;;;5041061;28;20037;-74
2022/08/21 07:32:17;;;;;;;0.00;0.00;;;21.20;39.40;;;;;;5033197;28;20028;-74
2022/08/21 07:34:43;;;;;;;0.10;0.10;;;21.30;40.20;;;;;;5035761;28;20033;-74
2022/08/21 07:37:09;;;;;;;0.00;0.00;;;21.80;38.90;;;;;;5037256;28;20021;-74
2022/08/21 07:39:36;;;;;;;0.00;0.00;;;21.10;39.90;;;;;;5037820;28;20026;-74
2022/08/21 07:42:03;;;;;;;0.20;0.17;;;21.50;40.20;;;;;;5044938;28;20454;-74
2022/08/21 07:44:29;;;;;;;0.00;0.00;;;21.10;40.20;;;;;;5042514;28;20041;-74
2022/08/21 07:46:55;;;;;;;0.00;0.00;;;21.50;39.80;;;;;;5041978;28;20033;-74
2022/08/21 07:49:21;;;;;;;0.00;0.00;;;22.00;39.20;;;;;;5040673;28;20029;-74
2022/08/21 07:51:47;;;;;;;0.00;0.00;;;21.70;39.00;;;;;;5037880;28;20488;-74
2022/08/21 07:54:13;;;;;;;0.00;0.00;;;21.70;38.20;;;;;;5035625;28;20025;-72
2022/08/21 07:56:39;;;;;;;0.00;0.00;;;21.40;39.80;;;;;;5035440;28;20025;-72
2022/08/21 07:59:05;;;;;;;0.00;0.00;;;21.40;38.70;;;;;;5039239;28;20315;-72
2022/08/21 08:01:31;;;;;;;0.00;0.00;;;21.40;39.00;;;;;;5041493;28;20017;-73
2022/08/21 08:03:58;;;;;;;0.00;0.00;;;21.40;37.60;;;;;;5032226;28;20089;-73
2022/08/21 08:06:25;;;;;;;0.00;0.00;;;20.90;37.70;;;;;;5026690;28;20041;-74
2022/08/21 08:08:52;;;;;;;0.00;0.00;;;21.40;37.80;;;;;;5012329;28;20022;-74
2022/08/21 08:11:18;;;;;;;0.00;0.00;;;21.10;38.20;;;;;;5021553;28;20063;-74
2022/08/21 08:13:49;;;;;;;0.20;0.08;;;21.20;37.40;;;;;;5027415;28;20059;-75
2022/08/21 08:16:16;;;;;;;0.00;0.00;;;21.40;36.60;;;;;;5021929;28;20052;-72
2022/08/21 08:18:44;;;;;;;0.00;0.00;;;21.70;35.90;;;;;;5020158;28;20040;-73
2022/08/21 08:21:11;;;;;;;0.13;0.13;;;22.10;34.80;;;;;;5024915;28;20040;-73
2022/08/21 08:23:38;;;;;;;0.73;0.10;;;21.60;36.10;;;;;;5037960;28;20045;-73
2022/08/21 08:26:05;;;;;;;0.00;0.00;;;21.40;37.90;;;;;;5041078;28;20021;-73
2022/08/21 08:28:33;;;;;;;0.00;0.00;;;21.80;37.70;;;;;;5020433;28;20025;-73
2022/08/21 08:31:00;;;;;;;0.10;0.10;;;21.20;38.20;;;;;;5046094;28;20032;-73
2022/08/21 08:33:27;;;;;;;0.00;0.00;;;21.80;38.00;;;;;;5033147;28;20098;-74
2022/08/21 08:35:53;;;;;;;0.00;0.00;;;21.80;36.70;;;;;;5042264;28;20422;-74
2022/08/21 08:38:22;;;;;;;1.77;0.75;;;21.30;36.70;;;;;;5016977;28;20375;-73
2022/08/21 08:41:07;;;;;;;0.00;0.00;;;21.60;37.40;;;;;;5025000;28;20038;-73
2022/08/21 08:43:34;;;;;;;1.00;0.43;;;22.30;36.70;;;;;;5033514;28;20025;-73
2022/08/21 08:46:05;;;;;;;0.00;0.00;;;22.30;34.50;;;;;;5029170;28;20104;-74
2022/08/21 08:48:44;;;;;;;0.00;0.00;;;22.60;34.90;;;;;;5019424;28;20032;-75
2022/08/21 08:51:19;;;;;;;0.00;0.00;;;23.00;33.60;;;;;;5019084;28;20041;-74
2022/08/21 08:54:09;;;;;;;0.03;0.00;;;23.00;34.00;;;;;;5025526;28;20029;-74
2022/08/21 08:56:36;;;;;;;0.00;0.00;;;23.20;33.50;;;;;;5020660;28;20474;-74
2022/08/21 08:59:14;;;;;;;0.00;0.00;;;22.70;34.00;;;;;;5029318;28;20033;-75
2022/08/21 09:01:41;;;;;;;0.00;0.00;;;23.30;34.10;;;;;;5023501;28;20037;-74
2022/08/21 09:04:07;;;;;;;0.00;0.00;;;23.60;33.10;;;;;;5034580;28;20093;-75
2022/08/21 09:06:55;;;;;;;0.00;0.00;;;23.40;33.70;;;;;;5039867;28;20520;-74
2022/08/21 09:09:55;;;;;;;0.00;0.00;;;23.60;33.80;;;;;;5036950;28;20024;-74
2022/08/21 09:12:33;;;;;;;0.00;0.00;;;22.30;35.20;;;;;;5034551;28;20484;-74
2022/08/21 09:15:18;;;;;;;0.00;0.00;;;22.50;35.50;;;;;;5041667;28;20056;-74
2022/08/21 09:18:05;;;;;;;0.00;0.00;;;23.10;34.40;;;;;;5041058;28;20387;-74
2022/08/21 09:20:56;;;;;;;0.00;0.00;;;22.70;33.90;;;;;;5037958;28;20029;-73
2022/08/21 09:23:55;;;;;;;0.00;0.00;;;22.10;33.80;;;;;;5027105;28;20052;-73
2022/08/21 09:26:27;;;;;;;0.00;0.00;;;22.50;32.90;;;;;;5020855;28;20492;-73
2022/08/21 09:28:58;;;;;;;0.00;0.00;;;22.60;33.10;;;;;;5029995;28;20045;-73
2022/08/21 09:31:39;;;;;;;0.00;0.00;;;22.20;33.70;;;;;;5041607;28;20021;-74
2022/08/21 09:34:09;;;;;;;0.00;0.00;;;22.80;33.00;;;;;;5022794;28;20025;-73
2022/08/21 09:36:38;;;;;;;0.30;0.05;;;22.30;33.20;;;;;;5025469;28;20071;-75
2022/08/21 09:39:05;;;;;;;1.92;0.63;;;21.90;33.90;;;;;;5028919;28;20504;-72
2022/08/21 09:41:35;;;;;;;0.17;0.17;;;21.70;33.60;;;;;;5024478;28;20112;-74
2022/08/21 09:44:06;;;;;;;0.00;0.00;;;21.90;34.50;;;;;;5044458;28;20037;-74
2022/08/21 09:46:32;;;;;;;0.00;0.00;;;22.10;34.80;;;;;;5031597;28;20022;-73
2022/08/21 09:49:01;;;;;;;0.10;0.10;;;22.00;35.00;;;;;;5027489;28;20466;-73
2022/08/21 09:51:36;;;;;;;0.00;0.00;;;22.40;34.40;;;;;;5028862;28;20034;-73
2022/08/21 09:54:08;;;;;;;0.00;0.00;;;22.00;35.30;;;;;;5029614;28;20029;-73
2022/08/21 09:59:45;;;;;;;0.00;0.00;;;22.50;33.40;;;;;;5028586;28;20554;-73
2022/08/21 10:02:33;;;;;;;0.10;0.10;;;22.90;33.20;;;;;;5020492;28;20030;-73
2022/08/21 10:05:18;;;;;;;0.00;0.00;;;23.00;34.10;;;;;;5034421;28;20492;-73
2022/08/21 10:07:44;;;;;;;0.00;0.00;;;22.80;33.70;;;;;;5037444;28;20037;-73
2022/08/21 10:10:20;;;;;;;0.45;0.45;;;22.80;33.70;;;;;;5036124;28;20025;-74
2022/08/21 10:12:50;;;;;;;0.00;0.00;;;23.00;34.30;;;;;;5039427;28;20470;-74
2022/08/21 10:15:39;;;;;;;0.00;0.00;;;23.40;33.00;;;;;;5034190;28;20033;-74
2022/08/21 10:18:11;;;;;;;0.00;0.00;;;22.60;33.00;;;;;;5039843;28;20097;-73
2022/08/21 10:20:41;;;;;;;0.00;0.00;;;22.20;34.60;;;;;;5039642;28;20086;-76
2022/08/21 10:23:16;;;;;;;0.00;0.00;;;21.80;35.00;;;;;;5038203;28;20108;-74
2022/08/21 10:26:08;;;;;;;0.93;0.93;;;21.50;35.00;;;;;;5032866;28;20430;-74
2022/08/21 10:28:39;;;;;;;0.00;0.00;;;22.00;34.30;;;;;;5026582;28;20119;-73
2022/08/21 10:31:19;;;;;;;0.00;0.00;;;22.50;33.80;;;;;;5034717;28;20108;-75
2022/08/21 10:34:04;;;;;;;0.00;0.00;;;21.80;35.10;;;;;;5040447;28;20029;-74
2022/08/21 10:36:36;;;;;;;0.43;0.10;;;21.80;35.50;;;;;;5039359;28;20047;-75
2022/08/21 10:39:35;;;;;;;0.00;0.00;;;21.80;36.00;;;;;;5036087;28;20029;-74
2022/08/21 10:42:10;;;;;;;0.10;0.00;;;22.10;35.90;;;;;;5038925;28;20351;-73
2022/08/21 10:45:08;;;;;;;0.32;0.28;;;22.00;35.90;;;;;;5038369;28;20019;-74
2022/08/21 10:47:58;;;;;;;0.00;0.00;;;21.90;36.70;;;;;;5020346;28;20033;-74
2022/08/21 10:50:42;;;;;;;0.00;0.00;;;21.70;35.90;;;;;;5029064;28;20112;-74
2022/08/21 10:53:37;;;;;;;0.00;0.00;;;21.60;36.20;;;;;;5033935;28;20029;-74
2022/08/21 10:56:17;;;;;;;0.08;0.00;;;21.20;35.80;;;;;;5027256;28;20112;-74
2022/08/21 10:58:54;;;;;;;0.00;0.00;;;21.50;37.10;;;;;;5031597;28;20457;-74
2022/08/21 11:01:49;;;;;;;0.00;0.00;;;21.20;37.50;;;;;;5038142;28;20056;-74
2022/08/21 11:04:24;;;;;;;0.00;0.00;;;21.40;37.00;;;;;;4985797;28;20045;-74
2022/08/21 11:07:00;;;;;;;0.47;0.47;;;21.50;37.30;;;;;;5033009;28;20033;-74
2022/08/21 11:09:27;;;;;;;0.00;0.00;;;21.80;37.20;;;;;;5023769;28;20053;-74
2022/08/21 11:12:06;;;;;;;0.00;0.00;;;22.00;36.70;;;;;;5032357;28;20045;-74
2022/08/21 11:15:05;;;;;;;0.00;0.00;;;22.20;35.80;;;;;;5039375;28;20343;-73
2022/08/21 11:17:50;;;;;;;0.00;0.00;;;21.70;36.40;;;;;;5025579;28;20052;-75
2022/08/21 11:20:28;;;;;;;0.22;0.00;;;22.00;36.60;;;;;;5034394;28;20091;-75
2022/08/21 11:23:12;;;;;;;0.03;0.03;;;22.10;35.40;;;;;;5034367;28;20051;-75
2022/08/21 11:25:45;;;;;;;0.00;0.00;;;21.50;36.90;;;;;;5040850;28;20021;-72
2022/08/21 11:28:24;;;;;;;0.70;0.25;;;21.50;37.30;;;;;;5027622;28;20026;-73
2022/08/21 11:31:12;;;;;;;0.00;0.00;;;21.00;36.80;;;;;;5028916;28;20055;-75
2022/08/21 11:33:50;;;;;;;0.00;0.00;;;20.70;37.40;;;;;;5033193;28;20104;-74
2022/08/21 11:36:21;;;;;;;0.00;0.00;;;21.00;37.40;;;;;;5029248;28;20029;-74
2022/08/21 11:39:09;;;;;;;0.00;0.00;;;21.00;37.00;;;;;;5020430;28;20030;-73
2022/08/21 11:41:43;;;;;;;0.00;0.00;;;21.00;36.90;;;;;;5038471;28;20057;-74
2022/08/21 11:44:45;;;;;;;0.00;0.00;;;21.30;36.20;;;;;;5039042;28;20450;-74
2022/08/21 11:47:44;;;;;;;0.00;0.00;;;21.50;36.00;;;;;;5037466;28;20029;-74
2022/08/21 11:50:21;;;;;;;0.00;0.00;;;21.30;36.30;;;;;;5033125;28;20025;-74
2022/08/21 11:53:11;;;;;;;0.00;0.00;;;20.90;36.70;;;;;;5034597;28;20033;-75
2022/08/21 11:55:43;;;;;;;0.00;0.00;;;20.80;36.70;;;;;;5028510;28;20079;-75
2022/08/21 11:58:23;;;;;;;0.00;0.00;;;21.00;36.50;;;;;;5030917;28;20075;-75
2022/08/21 12:01:14;;;;;;;0.00;0.00;;;21.10;36.70;;;;;;5031370;28;20033;-75
2022/08/21 12:03:51;;;;;;;0.00;0.00;;;21.40;36.30;;;;;;5039443;28;20108;-73
2022/08/21 12:06:39;;;;;;;0.00;0.00;;;21.10;35.50;;;;;;5039926;28;20477;-75
2022/08/21 12:09:09;;;;;;;0.00;0.00;;;21.00;36.00;;;;;;5032544;28;20029;-72
2022/08/21 12:11:49;;;;;;;0.00;0.00;;;21.30;35.70;;;;;;5026388;28;20032;-74
2022/08/21 12:14:18;;;;;;;0.00;0.00;;;21.20;36.30;;;;;;5030135;28;20415;-74
2022/08/21 12:16:47;;;;;;;0.00;0.00;;;21.40;36.10;;;;;;5032509;28;20136;-74
2022/08/21 12:19:25;;;;;;;3.95;3.75;;;21.60;35.60;;;;;;5020446;28;20374;-74
2022/08/21 12:22:11;;;;;;;0.00;0.00;;;21.60;35.30;;;;;;5020130;28;20046;-72
2022/08/21 12:24:47;;;;;;;0.00;0.00;;;21.20;35.50;;;;;;5022792;28;20358;-73
2022/08/21 12:27:44;;;;;;;0.00;0.00;;;21.10;36.10;;;;;;5030736;28;20042;-75
2022/08/21 12:30:35;;;;;;;0.00;0.00;;;21.20;36.20;;;;;;5023859;28;20506;-74
2022/08/21 12:33:18;;;;;;;0.00;0.00;;;21.50;35.10;;;;;;5019558;28;20049;-73
2022/08/21 12:35:48;;;;;;;0.00;0.00;;;21.80;35.10;;;;;;5018805;28;20112;-74
2022/08/21 12:38:27;;;;;;;0.00;0.00;;;22.00;34.40;;;;;;5025345;28;20036;-74
2022/08/21 12:41:15;;;;;;;0.00;0.00;;;22.00;34.10;;;;;;5026116;28;20504;-73
2022/08/21 12:43:47;;;;;;;0.00;0.00;;;22.00;34.60;;;;;;5015666;28;20475;-74
2022/08/21 12:46:39;;;;;;;0.00;0.00;;;21.90;34.30;;;;;;5022111;28;20060;-74
2022/08/21 12:49:16;;;;;;;0.00;0.00;;;21.70;35.00;;;;;;5031581;28;20061;-74
2022/08/21 12:52:01;;;;;;;0.00;0.00;;;21.80;34.70;;;;;;5025391;28;20029;-75
2022/08/21 12:54:32;;;;;;;0.00;0.00;;;21.90;34.50;;;;;;5027380;28;20344;-74
2022/08/21 12:57:03;;;;;;;0.00;0.00;;;22.00;33.90;;;;;;5023239;28;20041;-74
2022/08/21 12:59:30;;;;;;;0.00;0.00;;;22.00;34.30;;;;;;5031834;28;20025;-74
2022/08/21 13:01:59;;;;;;;0.00;0.00;;;21.90;34.60;;;;;;5025063;28;20041;-74
2022/08/21 13:04:37;;;;;;;0.00;0.00;;;21.80;35.00;;;;;;5029846;28;20457;-74
2022/08/21 13:07:10;;;;;;;0.00;0.00;;;21.30;35.70;;;;;;5034237;28;20041;-75
2022/08/21 13:09:48;;;;;;;0.08;0.08;;;21.30;35.80;;;;;;5039127;28;20032;-73